CORO2: Mud Creek nr Courtney, OK

Data processed at Sun Sep 23 2018 23:02


All information presented herein is the property of the government of the United States of America and may be revised or deleted at any time without prior notice.
Dissemination of this information without the expressed written consent of the Public Affairs Office, Tulsa District U.S. Army Corps of Engineers is strictly prohibited.
These data are gathered electronically and, as presented, have not undergone any form of quality control. These data are not guaranteed to be valid or correct.
Go to home page.
Go to station list.
Go to home page.

Downstream station:


Previous Day
Next Day
Current Day
    
SHEF ID:       CORO2     Mud Creek nr Courtney, OK
STATION TYPE:  

                STAGE  RIV-FLOW  BAT-LOAD
                   ft       cfs      volt
              Ccp-Rev   Ccp-Rev   Ccp-Rev
(US/Central)
09/23 00:00     25.92      4127     12.41
09/23 01:00     25.92      4127     12.41
09/23 02:00     26.15      4511     12.41
09/23 03:00     26.71      5579     12.41
09/23 04:00     27.37      7112     12.41
09/23 05:00     27.85      8444     12.41
09/23 06:00     28.13      9316     12.41
09/23 07:00     28.27      9781     12.41
09/23 08:00     28.30      9883     12.41
09/23 09:00     28.26      9747     12.41
09/23 10:00     28.19      9513     12.57
09/23 11:00     28.09      9187     12.65
09/23 12:00     27.96      8778     12.73
09/23 13:00     27.84      8414     12.81
09/23 14:00     27.71      8035     12.89
09/23 15:00     27.58      7670     12.89
09/23 16:00     27.45      7320     12.89
09/23 17:00     27.32      6984     12.73
09/23 18:00     27.20      6686     12.65
09/23 19:00     27.08      6399     12.57
09/23 20:00     26.97      6145     12.57
09/23 21:00     26.85      5878     12.49
09/23 22:00     26.74      5642     12.41
09/23 23:00      ----      ----      ----